createdAt,value
2022-09-24T00:02:59.442Z,90.5
2022-09-24T00:17:24.481Z,89.3
2022-09-24T00:31:54.601Z,89.4
2022-09-24T00:46:24.319Z,90.8
2022-09-24T01:00:54.372Z,94.4
2022-09-24T01:15:23.022Z,95.8
2022-09-24T01:29:53.365Z,95.7
2022-09-24T01:44:24.304Z,92.2
2022-09-24T01:58:54.423Z,92.5
2022-09-24T02:13:24.444Z,93.3
2022-09-24T02:27:53.790Z,89.8
2022-09-24T02:42:27.026Z,92.7
2022-09-24T02:56:55.959Z,91.8
2022-09-24T03:11:26.563Z,93.4
2022-09-24T03:25:59.224Z,93.9
2022-09-24T03:40:27.081Z,94.6
2022-09-24T03:54:57.502Z,97.5
2022-09-24T04:09:34.282Z,93.5
2022-09-24T04:24:01.838Z,94.8
2022-09-24T04:38:31.892Z,95.2
2022-09-24T04:53:03.108Z,95.5
2022-09-24T05:07:33.949Z,96
2022-09-24T05:22:04.180Z,94.5
2022-09-24T05:36:34.872Z,97.4
2022-09-24T05:51:05.209Z,96.8
2022-09-24T06:05:36.738Z,93.1
2022-09-24T06:20:06.436Z,93.7
2022-09-24T06:34:37.950Z,93.7
2022-09-24T06:49:08.641Z,93.5
2022-09-24T07:03:40.159Z,93.9
2022-09-24T07:18:10.038Z,94
2022-09-24T07:32:40.767Z,92.2
2022-09-24T07:47:15.842Z,93.2
2022-09-24T08:01:45.209Z,91.7
2022-09-24T08:16:15.019Z,92
2022-09-24T08:30:46.970Z,85.8
2022-09-24T08:45:19.841Z,80.7
2022-09-24T08:59:51.768Z,76.5
2022-09-24T09:14:31.653Z,71.8
2022-09-24T09:28:59.684Z,72.6
2022-09-24T09:43:30.565Z,71.2
2022-09-24T09:58:01.503Z,72.3
2022-09-24T10:12:34.064Z,70.2
2022-09-24T10:27:11.415Z,68.8
2022-09-24T10:41:43.469Z,67.7
2022-09-24T10:56:11.711Z,66.5
2022-09-24T11:10:42.864Z,67.7
2022-09-24T11:25:10.698Z,68.8
2022-09-24T11:39:41.157Z,67.7
2022-09-24T11:54:16.273Z,67.2
2022-09-24T12:08:48.492Z,64.8
2022-09-24T12:23:14.943Z,65.6
2022-09-24T12:37:44.623Z,66.5
2022-09-24T12:52:15.379Z,67.3
2022-09-24T13:06:49.316Z,73.8
2022-09-24T13:21:15.286Z,82
2022-09-24T13:35:46.104Z,88.5
2022-09-24T13:50:02.964Z,91
2022-09-24T14:04:34.241Z,94.1
2022-09-24T14:19:02.983Z,89.8
2022-09-24T14:33:34.238Z,87.4
2022-09-24T14:48:08.820Z,91.4
2022-09-24T15:02:41.412Z,93
2022-09-24T15:17:06.905Z,95.9
2022-09-24T15:31:37.214Z,97.2
2022-09-24T15:46:08.109Z,95.8
2022-09-24T16:00:38.479Z,95.6
2022-09-24T16:15:07.888Z,95.7
2022-09-24T16:29:36.116Z,98.6
2022-09-24T16:44:05.923Z,97.2
2022-09-24T16:58:35.642Z,99.4
2022-09-24T17:13:06.191Z,98.2
2022-09-24T17:27:36.432Z,100
2022-09-24T17:42:07.432Z,100
2022-09-24T17:56:38.171Z,100
2022-09-24T18:11:06.714Z,99.8
2022-09-24T18:25:36.250Z,100
2022-09-24T18:40:00.406Z,100
2022-09-24T18:54:28.816Z,100
2022-09-24T19:08:59.792Z,100
2022-09-24T19:23:29.932Z,100
2022-09-24T19:38:00.779Z,100
2022-09-24T19:52:30.884Z,100
2022-09-24T20:07:06.250Z,100
2022-09-24T20:21:39.028Z,100
2022-09-24T20:36:19.774Z,100
2022-09-24T20:50:43.686Z,100
2022-09-24T21:05:13.375Z,100
2022-09-24T21:19:44.035Z,100
2022-09-24T21:34:14.662Z,100
2022-09-24T21:48:44.639Z,100
2022-09-24T22:03:14.293Z,100
2022-09-24T22:17:44.488Z,100
2022-09-24T22:32:14.509Z,100
2022-09-24T22:46:45.994Z,100
2022-09-24T23:01:15.554Z,100
2022-09-24T23:15:43.564Z,100
2022-09-24T23:30:15.047Z,100
2022-09-24T23:44:46.075Z,100
2022-09-24T23:59:15.491Z,100
